Time;durP1;ratioP1;P1;durP2;ratioP2;P2;SDS_P1;SDS_P2;PMS_P1;PMS_P2;Temp;Humidity;BMP_temperature;BMP_pressure;BME280_temperature;BME280_humidity;BME280_pressure;Samples;Min_cycle;Max_cycle;Signal;HPM_P1;HPM_P2
2022/06/25 00:00:05;;;;;;;;;;;;;;;;;;350079;28;987;-72
2022/06/25 00:00:15;;;;;;;;;;;;;;;;;;349975;28;1085;-72
2022/06/25 00:00:26;;;;;;;;;;;;;;;;;;350114;28;841;-72
2022/06/25 00:00:36;;;;;;;;;;;;;;;;;;350014;28;971;-71
2022/06/25 00:00:46;;;;;;;;;;;;;;;;;;350113;28;964;-72
2022/06/25 00:00:56;;;;;;;;;;;;;;;;;;350075;28;917;-72
2022/06/25 00:01:07;;;;;;;;;;;;;;;;;;349899;28;1168;-72
2022/06/25 00:01:17;;;;;;;;;;;;;;;;;;350090;28;872;-72
2022/06/25 00:01:28;;;;;;;;;;;;;;;;;;350044;28;1012;-72
2022/06/25 00:01:38;;;;;;;;;;;;;;;;;;350127;28;802;-72
2022/06/25 00:01:48;;;;;;;;;;;;;;;;;;350062;28;928;-72
2022/06/25 00:01:58;;;;;;;;;;;;;;;;;;350063;28;877;-72
2022/06/25 00:02:08;;;;;;;;;;;;;;;;;;350100;28;928;-72
2022/06/25 00:02:19;;;;;;;;;;;;;;;;;;350091;28;809;-72
2022/06/25 00:02:29;;;;;;;;;;;;;;;;;;350063;28;951;-72
2022/06/25 00:02:39;;;;;;;;;;;;;;;;;;349775;28;1929;-72
2022/06/25 00:02:49;;;;;;;;;;;;;;;;;;350208;28;861;-72
2022/06/25 00:02:59;;;;;;;;;;;;;;;;;;350118;28;924;-72
2022/06/25 00:03:09;;;;;;;;;;;;;;;;;;350085;28;877;-72
2022/06/25 00:03:20;;;;;;;;;;;;;;;;;;350085;28;975;-71
2022/06/25 00:03:30;;;;;;;;;;;;;;;;;;350075;28;968;-72
2022/06/25 00:03:40;;;;;;;;;;;;;;;;;;350065;28;936;-72
2022/06/25 00:03:51;;;;;;;;;;;;;;;;;;350074;28;834;-72
2022/06/25 00:04:01;;;;;;;;;;;;;;;;;;350131;28;873;-72
2022/06/25 00:05:37;;;;;;;;;;;;;;;;;;349978;28;1035;-72
2022/06/25 00:05:47;;;;;;;;;;;;;;;;;;350046;28;1019;-72
2022/06/25 00:05:57;;;;;;;;;;;;;;;;;;350072;28;971;-72
2022/06/25 00:06:08;;;;;;;;;;;;;;;;;;349853;28;1953;-71
2022/06/25 00:06:19;;;;;;;;;;;;;;;;;;350078;28;948;-72
2022/06/25 00:06:29;;;;;;;;;;;;;;;;;;350060;28;934;-71
2022/06/25 00:06:39;;;;;;;;;;;;;;;;;;350068;28;908;-72
2022/06/25 00:06:49;;;;;;;;;;;;;;;;;;350023;28;960;-72
2022/06/25 00:07:00;;;;;;;;;;;;;;;;;;350157;28;856;-72
2022/06/25 00:07:10;;;;;;;;;;;;;;;;;;350110;28;794;-72
2022/06/25 00:07:20;;;;;;;;;;;;;;;;;;350033;28;944;-72
2022/06/25 00:07:31;;;;;;;;;;;;;;;;;;350088;28;865;-72
2022/06/25 00:07:41;;;;;;;;;;;;;;;;;;350057;28;1088;-72
2022/06/25 00:07:51;;;;;;;;;;;;;;;;;;350069;28;920;-72
2022/06/25 00:08:01;;;;;;;;;;;;;;;;;;350072;28;936;-72
2022/06/25 00:08:11;;;;;;;;;;;;;;;;;;350018;28;905;-72
2022/06/25 00:08:22;;;;;;;;;;;;;;;;;;350094;28;857;-72
2022/06/25 00:08:33;;;;;;;;;;;;;;;;;;350078;28;873;-72
2022/06/25 00:08:47;;;;;;;;;;;;;;;;;;350091;28;778;-72
2022/06/25 00:08:57;;;;;;;;;;;;;;;;;;350019;28;900;-72
2022/06/25 00:09:07;;;;;;;;;;;;;;;;;;350043;28;972;-72
2022/06/25 00:09:17;;;;;;;;;;;;;;;;;;350077;28;877;-72
2022/06/25 00:09:28;;;;;;;;;;;;;;;;;;350055;28;992;-72
2022/06/25 00:09:38;;;;;;;;;;;;;;;;;;350107;28;857;-71
2022/06/25 00:09:48;;;;;;;;;;;;;;;;;;350097;28;956;-72
2022/06/25 00:09:58;;;;;;;;;;;;;;;;;;350047;28;932;-72
2022/06/25 00:10:09;;;;;;;;;;;;;;;;;;350066;28;857;-72
2022/06/25 00:10:19;;;;;;;;;;;;;;;;;;350092;28;806;-72
2022/06/25 00:10:29;;;;;;;;;;;;;;;;;;350079;28;991;-72
2022/06/25 00:10:39;;;;;;;;;;;;;;;;;;350038;28;852;-72
2022/06/25 00:10:51;;;;;;;;;;;;;;;;;;350030;28;916;-72
2022/06/25 00:11:02;;;;;;;;;;;;;;;;;;350036;28;1002;-72
2022/06/25 00:12:31;;;;;;;;;;;;;;;;;;350093;28;921;-72
2022/06/25 00:12:41;;;;;;;;;;;;;;;;;;349855;28;1203;-72
2022/06/25 00:12:51;;;;;;;;;;;;;;;;;;350073;28;976;-72
2022/06/25 00:13:01;;;;;;;;;;;;;;;;;;350022;28;936;-72
2022/06/25 00:13:11;;;;;;;;;;;;;;;;;;350066;28;960;-72
2022/06/25 00:13:22;;;;;;;;;;;;;;;;;;350061;28;992;-72
2022/06/25 00:13:33;;;;;;;;;;;;;;;;;;350040;28;845;-72
2022/06/25 00:13:43;;;;;;;;;;;;;;;;;;350053;28;1049;-72
2022/06/25 00:13:53;;;;;;;;;;;;;;;;;;350071;28;869;-72
2022/06/25 00:14:04;;;;;;;;;;;;;;;;;;350077;28;944;-72
2022/06/25 00:14:15;;;;;;;;;;;;;;;;;;350016;28;920;-72
2022/06/25 00:14:25;;;;;;;;;;;;;;;;;;350073;28;920;-72
2022/06/25 00:14:36;;;;;;;;;;;;;;;;;;350044;28;979;-72
2022/06/25 00:14:46;;;;;;;;;;;;;;;;;;350078;28;798;-72
2022/06/25 00:14:56;;;;;;;;;;;;;;;;;;350012;28;987;-72
2022/06/25 00:15:07;;;;;;;;;;;;;;;;;;350055;28;975;-72
2022/06/25 00:15:17;;;;;;;;;;;;;;;;;;349936;28;1094;-72
2022/06/25 00:15:27;;;;;;;;;;;;;;;;;;350105;28;837;-72
2022/06/25 00:15:37;;;;;;;;;;;;;;;;;;350032;28;920;-72
2022/06/25 00:15:47;;;;;;;;;;;;;;;;;;350066;28;818;-72
2022/06/25 00:15:58;;;;;;;;;;;;;;;;;;350077;28;1022;-72
2022/06/25 00:16:08;;;;;;;;;;;;;;;;;;350115;28;877;-72
2022/06/25 00:16:19;;;;;;;;;;;;;;;;;;349750;28;1973;-72
2022/06/25 00:16:29;;;;;;;;;;;;;;;;;;350075;28;1767;-72
2022/06/25 00:16:39;;;;;;;;;;;;;;;;;;350087;28;912;-71
2022/06/25 00:16:49;;;;;;;;;;;;;;;;;;350008;28;968;-72
2022/06/25 00:16:59;;;;;;;;;;;;;;;;;;350040;28;975;-72
2022/06/25 00:17:10;;;;;;;;;;;;;;;;;;350078;28;916;-72
2022/06/25 00:17:20;;;;;;;;;;;;;;;;;;350085;28;787;-72
2022/06/25 00:17:31;;;;;;;;;;;;;;;;;;350076;28;936;-72
2022/06/25 00:17:42;;;;;;;;;;;;;;;;;;350037;28;884;-72
2022/06/25 00:17:52;;;;;;;;;;;;;;;;;;350030;28;983;-72
2022/06/25 00:18:02;;;;;;;;;;;;;;;;;;350032;28;1306;-72
2022/06/25 00:18:14;;;;;;;;;;;;;;;;;;350040;28;900;-72
2022/06/25 00:18:25;;;;;;;;;;;;;;;;;;350119;28;932;-72
2022/06/25 00:18:35;;;;;;;;;;;;;;;;;;350064;28;964;-72
2022/06/25 00:18:45;;;;;;;;;;;;;;;;;;350029;28;915;-72
2022/06/25 00:18:56;;;;;;;;;;;;;;;;;;350011;28;912;-72
2022/06/25 00:19:06;;;;;;;;;;;;;;;;;;350070;28;953;-72
2022/06/25 00:19:16;;;;;;;;;;;;;;;;;;349988;28;938;-72
2022/06/25 00:19:26;;;;;;;;;;;;;;;;;;350094;28;980;-72
2022/06/25 00:19:37;;;;;;;;;;;;;;;;;;350097;28;1752;-71
2022/06/25 00:19:47;;;;;;;;;;;;;;;;;;350019;28;944;-72
2022/06/25 00:19:57;;;;;;;;;;;;;;;;;;350078;28;924;-71
2022/06/25 00:20:08;;;;;;;;;;;;;;;;;;350067;28;995;-72
2022/06/25 00:20:18;;;;;;;;;;;;;;;;;;349994;28;1110;-72
2022/06/25 00:20:28;;;;;;;;;;;;;;;;;;350092;28;798;-71
2022/06/25 00:20:39;;;;;;;;;;;;;;;;;;350079;28;797;-71
2022/06/25 00:20:49;;;;;;;;;;;;;;;;;;349954;28;1027;-72
2022/06/25 00:21:00;;;;;;;;;;;;;;;;;;350071;28;964;-72
2022/06/25 00:21:10;;;;;;;;;;;;;;;;;;350041;28;1011;-72
2022/06/25 00:21:20;;;;;;;;;;;;;;;;;;350009;28;845;-71
2022/06/25 00:21:31;;;;;;;;;;;;;;;;;;350010;28;979;-71
2022/06/25 00:21:41;;;;;;;;;;;;;;;;;;350060;28;916;-72
2022/06/25 00:21:51;;;;;;;;;;;;;;;;;;349997;28;987;-72
2022/06/25 00:22:02;;;;;;;;;;;;;;;;;;350014;28;1136;-72
2022/06/25 00:22:12;;;;;;;;;;;;;;;;;;350010;28;1051;-71
2022/06/25 00:22:22;;;;;;;;;;;;;;;;;;350062;28;921;-72
2022/06/25 00:22:33;;;;;;;;;;;;;;;;;;349965;28;1484;-72
2022/06/25 00:22:43;;;;;;;;;;;;;;;;;;350022;28;983;-72
2022/06/25 00:22:53;;;;;;;;;;;;;;;;;;350054;28;810;-72
2022/06/25 00:23:04;;;;;;;;;;;;;;;;;;350065;28;987;-72
2022/06/25 00:23:14;;;;;;;;;;;;;;;;;;350039;28;778;-72
2022/06/25 00:23:24;;;;;;;;;;;;;;;;;;350087;28;928;-71
2022/06/25 00:23:35;;;;;;;;;;;;;;;;;;350012;28;955;-72
2022/06/25 00:23:45;;;;;;;;;;;;;;;;;;350091;28;857;-71
2022/06/25 00:23:55;;;;;;;;;;;;;;;;;;349992;28;952;-72
2022/06/25 00:24:05;;;;;;;;;;;;;;;;;;350042;28;924;-72
2022/06/25 00:24:16;;;;;;;;;;;;;;;;;;350029;28;836;-72
2022/06/25 00:24:26;;;;;;;;;;;;;;;;;;350098;28;841;-72
2022/06/25 00:24:37;;;;;;;;;;;;;;;;;;349992;28;991;-72
2022/06/25 00:24:47;;;;;;;;;;;;;;;;;;350060;28;929;-71
2022/06/25 00:24:57;;;;;;;;;;;;;;;;;;350060;28;795;-72
2022/06/25 00:25:07;;;;;;;;;;;;;;;;;;350051;28;983;-72
2022/06/25 00:25:18;;;;;;;;;;;;;;;;;;349928;28;1910;-72
2022/06/25 00:25:28;;;;;;;;;;;;;;;;;;350010;28;941;-72
2022/06/25 00:25:39;;;;;;;;;;;;;;;;;;350011;28;1169;-72
2022/06/25 00:25:49;;;;;;;;;;;;;;;;;;350058;28;1015;-72
2022/06/25 00:25:59;;;;;;;;;;;;;;;;;;350009;28;888;-72
2022/06/25 00:26:09;;;;;;;;;;;;;;;;;;350064;28;928;-72
2022/06/25 00:26:19;;;;;;;;;;;;;;;;;;350006;28;1023;-72
2022/06/25 00:26:30;;;;;;;;;;;;;;;;;;349995;28;1149;-71
2022/06/25 00:26:40;;;;;;;;;;;;;;;;;;350006;28;987;-72
2022/06/25 00:26:50;;;;;;;;;;;;;;;;;;350032;28;988;-72
2022/06/25 00:27:00;;;;;;;;;;;;;;;;;;350072;28;999;-72
2022/06/25 00:27:10;;;;;;;;;;;;;;;;;;350101;28;869;-72
2022/06/25 00:27:21;;;;;;;;;;;;;;;;;;350034;28;1105;-72
2022/06/25 00:27:31;;;;;;;;;;;;;;;;;;350015;28;1011;-72
2022/06/25 00:27:41;;;;;;;;;;;;;;;;;;349973;28;1188;-72
2022/06/25 00:27:52;;;;;;;;;;;;;;;;;;350075;28;1020;-72
2022/06/25 00:28:02;;;;;;;;;;;;;;;;;;350068;28;880;-72
2022/06/25 00:28:13;;;;;;;;;;;;;;;;;;350033;28;980;-72
2022/06/25 00:28:23;;;;;;;;;;;;;;;;;;350027;28;933;-71
2022/06/25 00:28:33;;;;;;;;;;;;;;;;;;350015;28;1137;-72
2022/06/25 00:28:43;;;;;;;;;;;;;;;;;;350087;28;924;-72
2022/06/25 00:28:53;;;;;;;;;;;;;;;;;;349991;28;1003;-72
2022/06/25 00:29:04;;;;;;;;;;;;;;;;;;350001;28;908;-72
2022/06/25 00:29:14;;;;;;;;;;;;;;;;;;350050;28;944;-72
2022/06/25 00:29:24;;;;;;;;;;;;;;;;;;350052;28;929;-72
2022/06/25 00:29:35;;;;;;;;;;;;;;;;;;350033;28;932;-72
2022/06/25 00:29:45;;;;;;;;;;;;;;;;;;349990;28;1079;-72
2022/06/25 00:29:56;;;;;;;;;;;;;;;;;;350079;28;798;-71
2022/06/25 00:30:07;;;;;;;;;;;;;;;;;;350082;28;869;-72
2022/06/25 00:30:17;;;;;;;;;;;;;;;;;;349941;28;1033;-72
2022/06/25 00:30:28;;;;;;;;;;;;;;;;;;350097;28;921;-72
2022/06/25 00:30:38;;;;;;;;;;;;;;;;;;350087;28;857;-72
2022/06/25 00:30:49;;;;;;;;;;;;;;;;;;350009;28;991;-71
2022/06/25 00:30:59;;;;;;;;;;;;;;;;;;350002;28;995;-72
2022/06/25 00:31:09;;;;;;;;;;;;;;;;;;349778;28;1828;-72
2022/06/25 00:31:19;;;;;;;;;;;;;;;;;;350053;28;968;-72
2022/06/25 00:31:29;;;;;;;;;;;;;;;;;;350064;28;917;-72
2022/06/25 00:31:40;;;;;;;;;;;;;;;;;;350071;28;924;-72
2022/06/25 00:31:50;;;;;;;;;;;;;;;;;;349900;28;964;-72
2022/06/25 00:32:00;;;;;;;;;;;;;;;;;;350058;28;932;-72
2022/06/25 00:32:10;;;;;;;;;;;;;;;;;;350010;28;873;-72
2022/06/25 00:32:21;;;;;;;;;;;;;;;;;;350055;28;1011;-72
2022/06/25 00:32:31;;;;;;;;;;;;;;;;;;350071;28;865;-71
2022/06/25 00:32:41;;;;;;;;;;;;;;;;;;349989;28;964;-72
2022/06/25 00:32:51;;;;;;;;;;;;;;;;;;350038;28;952;-72
2022/06/25 00:33:01;;;;;;;;;;;;;;;;;;350069;28;861;-71
2022/06/25 00:33:12;;;;;;;;;;;;;;;;;;350012;28;987;-72
2022/06/25 00:33:22;;;;;;;;;;;;;;;;;;350059;28;884;-72
2022/06/25 00:33:32;;;;;;;;;;;;;;;;;;350045;28;877;-72
2022/06/25 00:33:42;;;;;;;;;;;;;;;;;;349976;28;929;-72
2022/06/25 00:33:52;;;;;;;;;;;;;;;;;;350004;28;980;-72
2022/06/25 00:34:03;;;;;;;;;;;;;;;;;;350039;28;929;-71
2022/06/25 00:34:13;;;;;;;;;;;;;;;;;;349945;28;835;-72
2022/06/25 00:34:25;;;;;;;;;;;;;;;;;;350041;28;924;-72
2022/06/25 00:34:39;;;;;;;;;;;;;;;;;;350065;28;979;-71
2022/06/25 00:34:49;;;;;;;;;;;;;;;;;;350016;28;983;-72
2022/06/25 00:34:59;;;;;;;;;;;;;;;;;;350071;28;1007;-72
2022/06/25 00:35:10;;;;;;;;;;;;;;;;;;350038;28;925;-72
2022/06/25 00:35:20;;;;;;;;;;;;;;;;;;350028;28;892;-72
2022/06/25 00:35:31;;;;;;;;;;;;;;;;;;350049;28;857;-72
2022/06/25 00:35:41;;;;;;;;;;;;;;;;;;350011;28;1096;-71
2022/06/25 00:35:51;;;;;;;;;;;;;;;;;;350029;28;948;-72
2022/06/25 00:36:01;;;;;;;;;;;;;;;;;;349956;28;1023;-71
2022/06/25 00:36:11;;;;;;;;;;;;;;;;;;350006;28;901;-72
2022/06/25 00:36:21;;;;;;;;;;;;;;;;;;349988;28;976;-72
2022/06/25 00:36:32;;;;;;;;;;;;;;;;;;349990;28;1160;-71
2022/06/25 00:36:42;;;;;;;;;;;;;;;;;;349989;28;1038;-72
2022/06/25 00:36:52;;;;;;;;;;;;;;;;;;349998;28;939;-72
2022/06/25 00:37:03;;;;;;;;;;;;;;;;;;350053;28;1025;-71
2022/06/25 00:37:15;;;;;;;;;;;;;;;;;;350026;28;1335;-71
2022/06/25 00:37:25;;;;;;;;;;;;;;;;;;351447;28;1097;-72
2022/06/25 00:37:35;;;;;;;;;;;;;;;;;;351461;28;925;-72
2022/06/25 00:37:46;;;;;;;;;;;;;;;;;;351481;28;829;-72
2022/06/25 00:37:56;;;;;;;;;;;;;;;;;;351457;28;908;-72
2022/06/25 00:38:06;;;;;;;;;;;;;;;;;;350689;28;1908;-72
2022/06/25 00:38:16;;;;;;;;;;;;;;;;;;350123;28;988;-71
2022/06/25 00:38:27;;;;;;;;;;;;;;;;;;350038;28;917;-72
2022/06/25 00:38:37;;;;;;;;;;;;;;;;;;350012;28;916;-72
2022/06/25 00:38:47;;;;;;;;;;;;;;;;;;350033;28;924;-72
2022/06/25 00:38:58;;;;;;;;;;;;;;;;;;349997;28;956;-72
2022/06/25 00:39:08;;;;;;;;;;;;;;;;;;350066;28;924;-72
2022/06/25 00:39:18;;;;;;;;;;;;;;;;;;349975;28;967;-72
2022/06/25 00:39:28;;;;;;;;;;;;;;;;;;349947;28;1058;-71
2022/06/25 00:39:39;;;;;;;;;;;;;;;;;;349985;28;1086;-72
2022/06/25 00:39:50;;;;;;;;;;;;;;;;;;350067;28;925;-71
2022/06/25 00:40:00;;;;;;;;;;;;;;;;;;350059;28;920;-72
2022/06/25 00:40:10;;;;;;;;;;;;;;;;;;349996;28;813;-72
2022/06/25 00:40:21;;;;;;;;;;;;;;;;;;350006;28;822;-72
2022/06/25 00:40:31;;;;;;;;;;;;;;;;;;350022;28;979;-72
2022/06/25 00:40:41;;;;;;;;;;;;;;;;;;350028;28;849;-71
2022/06/25 00:40:51;;;;;;;;;;;;;;;;;;350103;28;951;-72
2022/06/25 00:41:03;;;;;;;;;;;;;;;;;;350017;28;953;-72
2022/06/25 00:41:14;;;;;;;;;;;;;;;;;;350039;28;912;-71
2022/06/25 00:41:25;;;;;;;;;;;;;;;;;;350070;28;932;-72
2022/06/25 00:41:35;;;;;;;;;;;;;;;;;;350049;28;920;-72
2022/06/25 00:41:45;;;;;;;;;;;;;;;;;;350073;28;892;-71
2022/06/25 00:41:55;;;;;;;;;;;;;;;;;;350078;28;782;-72
2022/06/25 00:42:09;;;;;;;;;;;;;;;;;;349993;28;936;-72
2022/06/25 00:42:20;;;;;;;;;;;;;;;;;;350071;28;943;-72
2022/06/25 00:42:30;;;;;;;;;;;;;;;;;;350044;28;837;-72
2022/06/25 00:42:44;;;;;;;;;;;;;;;;;;350031;28;1004;-72
2022/06/25 00:42:54;;;;;;;;;;;;;;;;;;349990;28;909;-72
2022/06/25 00:43:04;;;;;;;;;;;;;;;;;;350064;28;925;-72
2022/06/25 00:43:14;;;;;;;;;;;;;;;;;;349995;28;1016;-72
2022/06/25 00:43:25;;;;;;;;;;;;;;;;;;349982;28;917;-71
2022/06/25 00:43:39;;;;;;;;;;;;;;;;;;349944;28;1031;-72
2022/06/25 00:43:49;;;;;;;;;;;;;;;;;;350026;28;928;-71
2022/06/25 00:44:05;;;;;;;;;;;;;;;;;;350023;28;1097;-72
2022/06/25 00:44:16;;;;;;;;;;;;;;;;;;349974;28;955;-72
2022/06/25 00:44:30;;;;;;;;;;;;;;;;;;350011;28;932;-71
2022/06/25 00:44:40;;;;;;;;;;;;;;;;;;350043;28;984;-72
2022/06/25 00:44:53;;;;;;;;;;;;;;;;;;349995;28;1075;-72
2022/06/25 00:45:04;;;;;;;;;;;;;;;;;;349977;28;1152;-71
2022/06/25 00:45:14;;;;;;;;;;;;;;;;;;350028;28;1008;-72
2022/06/25 00:45:24;;;;;;;;;;;;;;;;;;349978;28;1902;-72
2022/06/25 00:45:34;;;;;;;;;;;;;;;;;;349983;28;1019;-71
2022/06/25 00:45:45;;;;;;;;;;;;;;;;;;349997;28;908;-72
2022/06/25 00:45:55;;;;;;;;;;;;;;;;;;350004;28;1003;-71
2022/06/25 00:46:06;;;;;;;;;;;;;;;;;;349937;28;1915;-71
2022/06/25 00:46:16;;;;;;;;;;;;;;;;;;351140;28;1003;-72
2022/06/25 00:46:26;;;;;;;;;;;;;;;;;;351285;28;975;-72
2022/06/25 00:46:36;;;;;;;;;;;;;;;;;;351454;27;891;-71
2022/06/25 00:46:47;;;;;;;;;;;;;;;;;;351418;28;972;-72
2022/06/25 00:46:57;;;;;;;;;;;;;;;;;;351428;28;952;-72
2022/06/25 00:47:09;;;;;;;;;;;;;;;;;;351364;28;916;-72
2022/06/25 00:47:19;;;;;;;;;;;;;;;;;;351421;28;976;-72
2022/06/25 00:47:29;;;;;;;;;;;;;;;;;;351377;28;1157;-72
2022/06/25 00:47:39;;;;;;;;;;;;;;;;;;351398;28;937;-72
2022/06/25 00:47:50;;;;;;;;;;;;;;;;;;351415;28;802;-71
2022/06/25 00:48:00;;;;;;;;;;;;;;;;;;351341;28;1047;-72
2022/06/25 00:48:10;;;;;;;;;;;;;;;;;;351432;28;861;-72
2022/06/25 00:48:21;;;;;;;;;;;;;;;;;;351367;28;979;-72
2022/06/25 00:48:31;;;;;;;;;;;;;;;;;;351309;28;908;-72
2022/06/25 00:48:41;;;;;;;;;;;;;;;;;;351423;28;991;-72
2022/06/25 00:48:51;;;;;;;;;;;;;;;;;;351362;28;1010;-72
2022/06/25 00:49:02;;;;;;;;;;;;;;;;;;351426;28;983;-72
2022/06/25 00:49:13;;;;;;;;;;;;;;;;;;351471;28;860;-72
2022/06/25 00:49:23;;;;;;;;;;;;;;;;;;351436;28;975;-71
2022/06/25 00:49:33;;;;;;;;;;;;;;;;;;351415;28;944;-72
2022/06/25 00:49:43;;;;;;;;;;;;;;;;;;351377;28;904;-72
2022/06/25 00:49:53;;;;;;;;;;;;;;;;;;351385;28;976;-72
2022/06/25 00:50:04;;;;;;;;;;;;;;;;;;351424;28;849;-72
2022/06/25 00:50:14;;;;;;;;;;;;;;;;;;351340;28;892;-71
2022/06/25 00:50:25;;;;;;;;;;;;;;;;;;351222;28;971;-72
2022/06/25 00:50:35;;;;;;;;;;;;;;;;;;351141;28;994;-72
2022/06/25 00:50:45;;;;;;;;;;;;;;;;;;351338;28;1020;-72
2022/06/25 00:50:58;;;;;;;;;;;;;;;;;;351448;28;928;-71
2022/06/25 00:51:11;;;;;;;;;;;;;;;;;;351398;28;992;-72
2022/06/25 00:51:22;;;;;;;;;;;;;;;;;;351366;28;943;-72
2022/06/25 00:51:36;;;;;;;;;;;;;;;;;;351397;28;924;-72
2022/06/25 00:51:47;;;;;;;;;;;;;;;;;;351368;28;1243;-72
2022/06/25 00:52:00;;;;;;;;;;;;;;;;;;351475;28;872;-71
2022/06/25 00:52:14;;;;;;;;;;;;;;;;;;351425;28;870;-71
2022/06/25 00:52:25;;;;;;;;;;;;;;;;;;351376;28;1000;-71
2022/06/25 00:52:39;;;;;;;;;;;;;;;;;;351305;28;948;-72
2022/06/25 00:52:52;;;;;;;;;;;;;;;;;;351424;28;872;-72
2022/06/25 00:53:04;;;;;;;;;;;;;;;;;;351366;28;908;-72
2022/06/25 00:53:15;;;;;;;;;;;;;;;;;;351432;28;869;-72
2022/06/25 00:53:30;;;;;;;;;;;;;;;;;;351399;28;979;-72
2022/06/25 00:53:42;;;;;;;;;;;;;;;;;;351419;28;956;-71
2022/06/25 00:53:55;;;;;;;;;;;;;;;;;;351395;28;972;-72
2022/06/25 00:54:08;;;;;;;;;;;;;;;;;;351474;28;789;-72
2022/06/25 00:54:19;;;;;;;;;;;;;;;;;;351309;28;1015;-72
2022/06/25 00:54:33;;;;;;;;;;;;;;;;;;351447;28;857;-72
2022/06/25 00:54:58;;;;;;;;;;;;;;;;;;351340;28;837;-72
2022/06/25 00:55:10;;;;;;;;;;;;;;;;;;351429;28;858;-71
2022/06/25 00:55:22;;;;;;;;;;;;;;;;;;351387;28;927;-72
2022/06/25 00:55:35;;;;;;;;;;;;;;;;;;351297;28;1166;-72
2022/06/25 00:55:48;;;;;;;;;;;;;;;;;;351372;28;983;-72
2022/06/25 00:55:58;;;;;;;;;;;;;;;;;;351431;28;1002;-72
2022/06/25 00:56:09;;;;;;;;;;;;;;;;;;351340;28;983;-72
2022/06/25 00:56:21;;;;;;;;;;;;;;;;;;351454;28;939;-71
2022/06/25 00:56:33;;;;;;;;;;;;;;;;;;351420;28;931;-71
2022/06/25 00:56:46;;;;;;;;;;;;;;;;;;351388;28;874;-72
2022/06/25 00:56:58;;;;;;;;;;;;;;;;;;351384;28;935;-72
2022/06/25 00:57:08;;;;;;;;;;;;;;;;;;350622;28;1872;-71
2022/06/25 00:57:26;;;;;;;;;;;;;;;;;;349957;28;1021;-72
2022/06/25 00:57:38;;;;;;;;;;;;;;;;;;349952;28;991;-72
2022/06/25 00:57:49;;;;;;;;;;;;;;;;;;350038;28;932;-71
2022/06/25 00:58:00;;;;;;;;;;;;;;;;;;349993;28;881;-72
2022/06/25 00:58:12;;;;;;;;;;;;;;;;;;350010;28;797;-72
2022/06/25 00:58:23;;;;;;;;;;;;;;;;;;349967;28;983;-72
2022/06/25 00:58:33;;;;;;;;;;;;;;;;;;350034;28;932;-72
2022/06/25 00:58:44;;;;;;;;;;;;;;;;;;349982;28;849;-72
2022/06/25 00:58:58;;;;;;;;;;;;;;;;;;349939;28;920;-71
2022/06/25 00:59:09;;;;;;;;;;;;;;;;;;350021;28;948;-72
2022/06/25 00:59:26;;;;;;;;;;;;;;;;;;349979;28;931;-71
2022/06/25 00:59:39;;;;;;;;;;;;;;;;;;349993;28;987;-72
2022/06/25 00:59:50;;;;;;;;;;;;;;;;;;349938;28;1002;-71
2022/06/25 01:00:08;;;;;;;;;;;;;;;;;;350018;28;1083;-72
2022/06/25 01:00:18;;;;;;;;;;;;;;;;;;349928;28;975;-72
2022/06/25 01:00:29;;;;;;;;;;;;;;;;;;350070;28;860;-71
2022/06/25 01:00:39;;;;;;;;;;;;;;;;;;350323;28;1236;-71
2022/06/25 01:00:51;;;;;;;;;;;;;;;;;;351352;28;964;-72
2022/06/25 01:01:03;;;;;;;;;;;;;;;;;;351199;28;1108;-72
2022/06/25 01:01:14;;;;;;;;;;;;;;;;;;351366;28;907;-72
2022/06/25 01:01:24;;;;;;;;;;;;;;;;;;351415;28;1107;-72
2022/06/25 01:01:34;;;;;;;;;;;;;;;;;;351416;28;786;-72
2022/06/25 01:01:44;;;;;;;;;;;;;;;;;;351359;28;789;-72
2022/06/25 01:01:55;;;;;;;;;;;;;;;;;;351417;28;1099;-72
2022/06/25 01:02:05;;;;;;;;;;;;;;;;;;351414;28;991;-72
2022/06/25 01:02:15;;;;;;;;;;;;;;;;;;351304;28;952;-72
2022/06/25 01:02:25;;;;;;;;;;;;;;;;;;351431;28;1147;-71
2022/06/25 01:02:36;;;;;;;;;;;;;;;;;;351420;28;881;-72
2022/06/25 01:02:46;;;;;;;;;;;;;;;;;;351344;28;896;-72
2022/06/25 01:02:56;;;;;;;;;;;;;;;;;;351262;28;1264;-72
2022/06/25 01:03:07;;;;;;;;;;;;;;;;;;351256;28;782;-72
2022/06/25 01:03:17;;;;;;;;;;;;;;;;;;351281;28;864;-71
2022/06/25 01:03:27;;;;;;;;;;;;;;;;;;351330;28;892;-72
2022/06/25 01:03:37;;;;;;;;;;;;;;;;;;351307;28;853;-72
2022/06/25 01:03:47;;;;;;;;;;;;;;;;;;351222;28;932;-72
2022/06/25 01:03:58;;;;;;;;;;;;;;;;;;351350;28;857;-72
2022/06/25 01:04:08;;;;;;;;;;;;;;;;;;351310;28;928;-72
2022/06/25 01:04:19;;;;;;;;;;;;;;;;;;350363;28;1800;-71
2022/06/25 01:04:29;;;;;;;;;;;;;;;;;;351281;28;935;-72
2022/06/25 01:04:41;;;;;;;;;;;;;;;;;;351329;28;833;-72
2022/06/25 01:04:51;;;;;;;;;;;;;;;;;;351268;28;1006;-72
2022/06/25 01:05:05;;;;;;;;;;;;;;;;;;351410;28;932;-71
2022/06/25 01:05:16;;;;;;;;;;;;;;;;;;351349;28;999;-72
2022/06/25 01:05:26;;;;;;;;;;;;;;;;;;351356;28;1976;-72
2022/06/25 01:05:36;;;;;;;;;;;;;;;;;;351391;28;814;-72
2022/06/25 01:05:46;;;;;;;;;;;;;;;;;;351316;28;975;-72
2022/06/25 01:05:56;;;;;;;;;;;;;;;;;;351411;28;832;-72
2022/06/25 01:06:07;;;;;;;;;;;;;;;;;;351424;28;864;-71
2022/06/25 01:06:17;;;;;;;;;;;;;;;;;;351357;28;1017;-72
2022/06/25 01:06:30;;;;;;;;;;;;;;;;;;351372;28;1031;-72
2022/06/25 01:06:41;;;;;;;;;;;;;;;;;;351406;28;806;-72
2022/06/25 01:06:52;;;;;;;;;;;;;;;;;;351345;28;802;-71
2022/06/25 01:07:02;;;;;;;;;;;;;;;;;;351386;28;912;-72
2022/06/25 01:07:12;;;;;;;;;;;;;;;;;;351386;28;990;-71
2022/06/25 01:07:23;;;;;;;;;;;;;;;;;;351358;28;992;-72
2022/06/25 01:07:36;;;;;;;;;;;;;;;;;;351314;28;1078;-72
2022/06/25 01:07:47;;;;;;;;;;;;;;;;;;351367;28;963;-72
2022/06/25 01:07:57;;;;;;;;;;;;;;;;;;351427;28;916;-72
2022/06/25 01:08:08;;;;;;;;;;;;;;;;;;351419;28;805;-72
2022/06/25 01:08:18;;;;;;;;;;;;;;;;;;351333;28;983;-72
2022/06/25 01:08:29;;;;;;;;;;;;;;;;;;351365;28;999;-72
2022/06/25 01:08:39;;;;;;;;;;;;;;;;;;351430;28;979;-72
2022/06/25 01:08:50;;;;;;;;;;;;;;;;;;351391;28;931;-72
2022/06/25 01:09:00;;;;;;;;;;;;;;;;;;351356;28;975;-72
2022/06/25 01:09:10;;;;;;;;;;;;;;;;;;351390;28;928;-72
2022/06/25 01:09:21;;;;;;;;;;;;;;;;;;351335;28;986;-72
2022/06/25 01:09:31;;;;;;;;;;;;;;;;;;351405;28;928;-71
2022/06/25 01:09:41;;;;;;;;;;;;;;;;;;351356;28;849;-72
2022/06/25 01:09:52;;;;;;;;;;;;;;;;;;351364;28;998;-72
2022/06/25 01:10:03;;;;;;;;;;;;;;;;;;351395;28;936;-72
2022/06/25 01:10:14;;;;;;;;;;;;;;;;;;351331;28;1020;-72
2022/06/25 01:10:24;;;;;;;;;;;;;;;;;;351334;28;877;-72
2022/06/25 01:10:34;;;;;;;;;;;;;;;;;;351382;28;904;-72
2022/06/25 01:10:45;;;;;;;;;;;;;;;;;;351347;28;952;-71
2022/06/25 01:10:55;;;;;;;;;;;;;;;;;;351356;28;956;-72
2022/06/25 01:11:07;;;;;;;;;;;;;;;;;;351358;28;1011;-72
2022/06/25 01:11:18;;;;;;;;;;;;;;;;;;351418;28;924;-72
2022/06/25 01:11:28;;;;;;;;;;;;;;;;;;351305;28;935;-72
2022/06/25 01:11:38;;;;;;;;;;;;;;;;;;351404;27;964;-72
2022/06/25 01:11:48;;;;;;;;;;;;;;;;;;351355;28;836;-72
2022/06/25 01:11:59;;;;;;;;;;;;;;;;;;351435;28;963;-72
2022/06/25 01:12:09;;;;;;;;;;;;;;;;;;351403;28;845;-71
2022/06/25 01:12:19;;;;;;;;;;;;;;;;;;351401;28;967;-71
2022/06/25 01:12:29;;;;;;;;;;;;;;;;;;351377;28;927;-72
2022/06/25 01:12:39;;;;;;;;;;;;;;;;;;351341;28;1019;-72
2022/06/25 01:12:50;;;;;;;;;;;;;;;;;;351393;28;1015;-72
2022/06/25 01:13:00;;;;;;;;;;;;;;;;;;351379;28;919;-72
2022/06/25 01:13:11;;;;;;;;;;;;;;;;;;351372;28;1331;-72
2022/06/25 01:13:22;;;;;;;;;;;;;;;;;;351405;28;1171;-72
2022/06/25 01:13:32;;;;;;;;;;;;;;;;;;351265;28;963;-72
2022/06/25 01:13:42;;;;;;;;;;;;;;;;;;351381;28;900;-72
2022/06/25 01:13:53;;;;;;;;;;;;;;;;;;351387;28;869;-72
2022/06/25 01:14:07;;;;;;;;;;;;;;;;;;351430;28;829;-71
2022/06/25 01:14:17;;;;;;;;;;;;;;;;;;351347;28;920;-71
2022/06/25 01:14:27;;;;;;;;;;;;;;;;;;351440;28;869;-72
2022/06/25 01:14:38;;;;;;;;;;;;;;;;;;351418;28;920;-72
2022/06/25 01:14:59;;;;;;;;;;;;;;;;;;351406;28;928;-72
2022/06/25 01:15:14;;;;;;;;;;;;;;;;;;351384;28;972;-72
2022/06/25 01:15:24;;;;;;;;;;;;;;;;;;351387;28;916;-72
2022/06/25 01:15:34;;;;;;;;;;;;;;;;;;351402;28;975;-72
2022/06/25 01:15:45;;;;;;;;;;;;;;;;;;351365;28;1003;-72
2022/06/25 01:15:55;;;;;;;;;;;;;;;;;;351332;28;895;-72
2022/06/25 01:16:05;;;;;;;;;;;;;;;;;;350671;28;1768;-72
2022/06/25 01:16:16;;;;;;;;;;;;;;;;;;350046;28;1763;-72
2022/06/25 01:16:26;;;;;;;;;;;;;;;;;;350571;28;872;-72
2022/06/25 01:16:36;;;;;;;;;;;;;;;;;;350025;28;821;-72
2022/06/25 01:16:46;;;;;;;;;;;;;;;;;;350013;28;905;-72
2022/06/25 01:16:57;;;;;;;;;;;;;;;;;;350000;28;861;-72
2022/06/25 01:17:08;;;;;;;;;;;;;;;;;;350011;28;976;-72
2022/06/25 01:17:18;;;;;;;;;;;;;;;;;;350026;28;836;-72
2022/06/25 01:17:29;;;;;;;;;;;;;;;;;;350006;28;983;-72
2022/06/25 01:17:46;;;;;;;;;;;;;;;;;;349882;28;960;-72
2022/06/25 01:17:56;;;;;;;;;;;;;;;;;;349986;28;987;-71
2022/06/25 01:18:07;;;;;;;;;;;;;;;;;;349954;28;925;-72
2022/06/25 01:18:18;;;;;;;;;;;;;;;;;;349935;28;939;-72
2022/06/25 01:18:28;;;;;;;;;;;;;;;;;;349989;28;912;-71
2022/06/25 01:18:38;;;;;;;;;;;;;;;;;;349974;28;1011;-72
2022/06/25 01:18:48;;;;;;;;;;;;;;;;;;349917;28;929;-72
2022/06/25 01:18:59;;;;;;;;;;;;;;;;;;350007;28;939;-72
2022/06/25 01:19:10;;;;;;;;;;;;;;;;;;349979;28;960;-72
2022/06/25 01:19:20;;;;;;;;;;;;;;;;;;350008;28;982;-72
2022/06/25 01:19:30;;;;;;;;;;;;;;;;;;349992;28;923;-72
2022/06/25 01:19:41;;;;;;;;;;;;;;;;;;349961;28;916;-72
2022/06/25 01:19:51;;;;;;;;;;;;;;;;;;349917;28;885;-72